createdAt,value
2018-11-07T00:01:14.218Z,7.40
2018-11-07T00:03:42.605Z,7.40
2018-11-07T00:06:10.992Z,7.40
2018-11-07T00:08:39.349Z,7.40
2018-11-07T00:11:07.696Z,7.30
2018-11-07T00:13:36.063Z,7.30
2018-11-07T00:16:04.848Z,7.30
2018-11-07T00:18:33.226Z,7.30
2018-11-07T00:21:01.564Z,7.30
2018-11-07T00:23:29.920Z,7.30
2018-11-07T00:25:58.313Z,7.20
2018-11-07T00:28:26.684Z,7.20
2018-11-07T00:30:55.026Z,7.20
2018-11-07T00:33:23.432Z,7.20
2018-11-07T00:35:51.820Z,7.20
2018-11-07T00:38:20.201Z,7.10
2018-11-07T00:40:48.559Z,7.10
2018-11-07T00:43:16.928Z,7.10
2018-11-07T00:45:45.340Z,7.00
2018-11-07T00:48:13.732Z,7.00
2018-11-07T00:50:42.148Z,7.00
2018-11-07T00:53:10.496Z,6.90
2018-11-07T00:55:38.883Z,6.90
2018-11-07T00:58:07.321Z,6.90
2018-11-07T01:00:35.612Z,6.90
2018-11-07T01:03:04.012Z,6.90
2018-11-07T01:05:32.368Z,6.90
2018-11-07T01:08:00.807Z,6.90
2018-11-07T01:10:29.196Z,6.80
2018-11-07T01:12:57.559Z,6.80
2018-11-07T01:15:25.938Z,6.80
2018-11-07T01:17:54.316Z,6.70
2018-11-07T01:20:22.743Z,6.70
2018-11-07T01:22:51.095Z,6.70
2018-11-07T01:25:19.488Z,6.60
2018-11-07T01:27:47.885Z,6.50
2018-11-07T01:30:16.280Z,6.50
2018-11-07T01:32:44.661Z,6.40
2018-11-07T01:35:13.037Z,6.40
2018-11-07T01:37:41.447Z,6.40
2018-11-07T01:40:12.674Z,6.40
2018-11-07T01:42:41.057Z,6.50
2018-11-07T01:45:10.345Z,6.50
2018-11-07T01:47:38.742Z,6.50
2018-11-07T01:50:08.677Z,6.50
2018-11-07T01:52:37.076Z,6.50
2018-11-07T01:55:05.997Z,6.50
2018-11-07T01:57:34.560Z,6.50
2018-11-07T02:00:03.104Z,6.50
2018-11-07T02:02:31.457Z,6.50
2018-11-07T02:04:59.853Z,6.40
2018-11-07T02:07:28.210Z,6.30
2018-11-07T02:09:56.582Z,6.30
2018-11-07T02:12:24.937Z,6.20
2018-11-07T02:14:53.292Z,6.30
2018-11-07T02:17:21.654Z,6.30
2018-11-07T02:19:50.064Z,6.40
2018-11-07T02:22:18.448Z,6.40
2018-11-07T02:24:46.826Z,6.40
2018-11-07T02:27:15.173Z,6.40
2018-11-07T02:29:43.551Z,6.40
2018-11-07T02:32:11.964Z,6.40
2018-11-07T02:34:40.343Z,6.40
2018-11-07T02:37:08.740Z,6.30
2018-11-07T02:39:37.040Z,6.40
2018-11-07T02:42:05.419Z,6.30
2018-11-07T02:44:33.760Z,6.30
2018-11-07T02:47:02.122Z,6.30
2018-11-07T02:49:30.493Z,6.20
2018-11-07T02:51:58.840Z,6.20
2018-11-07T02:54:27.212Z,6.20
2018-11-07T02:56:55.545Z,6.20
2018-11-07T02:59:23.934Z,6.20
2018-11-07T03:01:52.295Z,6.10
2018-11-07T03:04:20.674Z,6.10
2018-11-07T03:06:49.039Z,6.00
2018-11-07T03:09:18.280Z,6.00
2018-11-07T03:11:46.631Z,6.00
2018-11-07T03:14:14.985Z,6.00
2018-11-07T03:16:43.387Z,6.00
2018-11-07T03:19:11.723Z,5.90
2018-11-07T03:21:40.080Z,5.90
2018-11-07T03:24:08.456Z,5.90
2018-11-07T03:26:36.817Z,5.90
2018-11-07T03:29:05.200Z,6.00
2018-11-07T03:31:33.573Z,5.90
2018-11-07T03:34:01.913Z,5.90
2018-11-07T03:36:30.437Z,5.90
2018-11-07T03:38:58.745Z,5.90
2018-11-07T03:41:27.127Z,5.90
2018-11-07T03:43:55.475Z,5.90
2018-11-07T03:46:23.881Z,5.80
2018-11-07T03:48:52.296Z,5.80
2018-11-07T03:51:20.678Z,5.80
2018-11-07T03:53:49.039Z,5.80
2018-11-07T03:56:17.433Z,5.80
2018-11-07T03:58:45.777Z,5.80
2018-11-07T04:01:14.168Z,5.80
2018-11-07T04:03:42.513Z,5.70
2018-11-07T04:06:10.901Z,5.70
2018-11-07T04:08:39.289Z,5.70
2018-11-07T04:11:07.736Z,5.70
2018-11-07T04:13:36.109Z,5.60
2018-11-07T04:16:04.508Z,5.50
2018-11-07T04:18:32.857Z,5.50
2018-11-07T04:21:01.253Z,5.50
2018-11-07T04:23:29.601Z,5.50
2018-11-07T04:25:57.960Z,5.50
2018-11-07T04:28:26.281Z,5.50
2018-11-07T04:30:54.662Z,5.50
2018-11-07T04:33:23.064Z,5.50
2018-11-07T04:35:51.441Z,5.50
2018-11-07T04:38:19.758Z,5.50
2018-11-07T04:40:48.112Z,5.50
2018-11-07T04:43:16.498Z,5.50
2018-11-07T04:45:44.868Z,5.50
2018-11-07T04:48:13.248Z,5.50
2018-11-07T04:50:41.595Z,5.50
2018-11-07T04:53:09.992Z,5.50
2018-11-07T04:55:38.388Z,5.60
2018-11-07T04:58:06.785Z,5.60
2018-11-07T05:00:35.156Z,5.60
2018-11-07T05:03:03.532Z,5.60
2018-11-07T05:05:31.916Z,5.60
2018-11-07T05:08:00.277Z,5.70
2018-11-07T05:10:28.633Z,5.70
2018-11-07T05:12:57.029Z,5.70
2018-11-07T05:15:25.381Z,5.60
2018-11-07T05:17:53.748Z,5.60
2018-11-07T05:20:22.101Z,5.60
2018-11-07T05:22:50.489Z,5.60
2018-11-07T05:25:18.825Z,5.50
2018-11-07T05:27:47.211Z,5.50
2018-11-07T05:30:15.555Z,5.40
2018-11-07T05:32:43.905Z,5.50
2018-11-07T05:35:12.285Z,5.50
2018-11-07T05:37:40.635Z,5.50
2018-11-07T05:40:09.019Z,5.30
2018-11-07T05:42:37.430Z,5.20
2018-11-07T05:45:06.037Z,5.30
2018-11-07T05:47:34.548Z,5.30
2018-11-07T05:50:02.996Z,5.30
2018-11-07T05:52:31.374Z,5.30
2018-11-07T05:54:59.727Z,5.20
2018-11-07T05:57:28.133Z,5.30
2018-11-07T05:59:56.476Z,5.30
2018-11-07T06:02:24.796Z,5.30
2018-11-07T06:04:53.184Z,5.30
2018-11-07T06:07:21.544Z,5.20
2018-11-07T06:10:00.998Z,5.20
2018-11-07T06:15:17.384Z,5.20
2018-11-07T06:17:45.761Z,5.10
2018-11-07T06:20:14.116Z,5.10
2018-11-07T06:22:42.439Z,5.10
2018-11-07T06:25:10.817Z,5.20
2018-11-07T06:27:39.164Z,5.20
2018-11-07T06:30:10.330Z,5.20
2018-11-07T06:32:38.672Z,5.20
2018-11-07T06:35:08.056Z,5.20
2018-11-07T06:37:36.414Z,5.20
2018-11-07T06:40:05.960Z,5.10
2018-11-07T06:42:34.287Z,5.00
2018-11-07T06:45:02.687Z,5.00
2018-11-07T06:47:31.032Z,5.00
2018-11-07T06:49:59.336Z,5.10
2018-11-07T06:52:27.802Z,5.10
2018-11-07T06:54:56.149Z,5.10
2018-11-07T06:57:24.521Z,5.10
2018-11-07T06:59:52.856Z,5.10
2018-11-07T07:02:21.206Z,5.20
2018-11-07T07:04:49.548Z,5.20
2018-11-07T07:07:17.927Z,5.20
2018-11-07T07:09:46.280Z,5.20
2018-11-07T07:12:14.611Z,5.20
2018-11-07T07:14:42.945Z,5.20
2018-11-07T07:17:11.288Z,5.30
2018-11-07T07:19:39.658Z,5.30
2018-11-07T07:22:08.059Z,5.30
2018-11-07T07:24:36.475Z,5.40
2018-11-07T07:27:04.969Z,5.40
2018-11-07T07:29:33.333Z,5.50
2018-11-07T07:32:01.704Z,5.50
2018-11-07T07:34:30.030Z,5.60
2018-11-07T07:36:58.440Z,5.60
2018-11-07T07:39:26.790Z,5.70
2018-11-07T07:41:55.176Z,5.70
2018-11-07T07:44:23.531Z,5.80
2018-11-07T07:46:51.933Z,5.80
2018-11-07T07:49:20.264Z,5.90
2018-11-07T07:51:48.642Z,6.00
2018-11-07T07:54:16.921Z,6.10
2018-11-07T07:56:45.291Z,6.20
2018-11-07T07:59:13.643Z,6.30
2018-11-07T08:01:42.104Z,6.50
2018-11-07T08:04:10.516Z,6.60
2018-11-07T08:06:38.892Z,6.70
2018-11-07T08:09:11.128Z,6.80
2018-11-07T08:11:39.891Z,6.80
2018-11-07T08:14:09.172Z,6.70
2018-11-07T08:16:37.405Z,6.80
2018-11-07T08:19:06.213Z,6.80
2018-11-07T08:21:34.544Z,6.90
2018-11-07T08:24:02.905Z,7.10
2018-11-07T08:26:31.270Z,7.20
2018-11-07T08:28:59.632Z,7.40
2018-11-07T08:31:28.095Z,7.70
2018-11-07T08:33:56.688Z,7.80
2018-11-07T08:39:01.621Z,8.00
2018-11-07T08:41:30.034Z,8.20
2018-11-07T08:43:58.433Z,8.20
2018-11-07T08:46:26.829Z,8.20
2018-11-07T08:48:55.180Z,8.20
2018-11-07T08:51:23.563Z,8.20
2018-11-07T08:53:51.889Z,8.30
2018-11-07T08:56:20.249Z,8.30
2018-11-07T08:58:48.593Z,8.50
2018-11-07T09:01:16.961Z,8.60
2018-11-07T09:03:45.322Z,8.60
2018-11-07T09:06:13.667Z,8.70
2018-11-07T09:08:42.076Z,8.70
2018-11-07T09:11:10.413Z,8.80
2018-11-07T09:13:38.784Z,8.90
2018-11-07T09:16:07.135Z,9.00
2018-11-07T09:18:35.478Z,9.00
2018-11-07T09:21:03.890Z,9.10
2018-11-07T09:23:32.274Z,9.20
2018-11-07T09:26:00.626Z,9.40
2018-11-07T09:28:28.991Z,9.50
2018-11-07T09:30:57.324Z,9.60
2018-11-07T09:33:25.711Z,9.70
2018-11-07T09:35:54.099Z,9.90
2018-11-07T09:38:22.439Z,10.00
2018-11-07T09:40:50.837Z,10.20
2018-11-07T09:43:19.259Z,10.40
2018-11-07T09:45:47.637Z,10.50
2018-11-07T09:48:16.113Z,10.50
2018-11-07T09:50:44.435Z,10.60
2018-11-07T09:53:12.841Z,10.80
2018-11-07T09:55:41.252Z,10.90
2018-11-07T09:58:09.650Z,11.00
2018-11-07T10:00:38.045Z,11.20
2018-11-07T10:03:06.451Z,11.30
2018-11-07T10:05:34.915Z,11.40
2018-11-07T10:08:03.190Z,11.50
2018-11-07T10:10:31.558Z,11.30
2018-11-07T10:12:59.936Z,11.60
2018-11-07T10:15:28.323Z,11.70
2018-11-07T10:17:56.701Z,12.10
2018-11-07T10:20:25.245Z,12.20
2018-11-07T10:22:53.636Z,12.50
2018-11-07T10:25:22.038Z,12.60
2018-11-07T10:27:50.563Z,12.70
2018-11-07T10:30:19.923Z,13.10
2018-11-07T10:32:49.189Z,13.20
2018-11-07T10:35:17.541Z,13.60
2018-11-07T10:37:45.971Z,14.30
2018-11-07T10:40:16.913Z,14.60
2018-11-07T10:42:45.776Z,14.80
2018-11-07T10:45:14.176Z,14.80
2018-11-07T10:47:43.551Z,14.60
2018-11-07T10:50:13.000Z,15.00
2018-11-07T10:52:42.277Z,15.20
2018-11-07T10:55:11.422Z,15.20
2018-11-07T10:57:39.819Z,15.20
2018-11-07T11:00:14.014Z,15.00
2018-11-07T11:02:47.786Z,15.10
2018-11-07T11:05:17.785Z,15.50
2018-11-07T11:07:46.121Z,15.80
2018-11-07T11:10:14.567Z,16.20
2018-11-07T11:12:43.938Z,16.40
2018-11-07T11:15:12.298Z,16.00
2018-11-07T11:17:40.841Z,15.40
2018-11-07T11:20:11.228Z,15.70
2018-11-07T11:22:39.612Z,16.10
2018-11-07T11:25:08.088Z,16.10
2018-11-07T11:27:36.592Z,16.10
2018-11-07T11:30:05.192Z,16.10
2018-11-07T11:32:33.877Z,16.00
2018-11-07T11:35:02.594Z,15.40
2018-11-07T11:37:30.829Z,15.60
2018-11-07T11:39:59.185Z,15.60
2018-11-07T11:42:27.551Z,15.40
2018-11-07T11:44:55.948Z,15.40
2018-11-07T11:47:24.412Z,15.40
2018-11-07T11:49:52.756Z,16.00
2018-11-07T11:52:21.116Z,16.30
2018-11-07T11:54:49.475Z,16.70
2018-11-07T11:57:17.825Z,17.10
2018-11-07T11:59:46.387Z,17.50
2018-11-07T12:02:14.565Z,17.30
2018-11-07T12:04:43.016Z,17.10
2018-11-07T12:07:11.388Z,17.40
2018-11-07T12:09:39.708Z,17.80
2018-11-07T12:12:08.124Z,17.40
2018-11-07T12:14:36.380Z,17.10
2018-11-07T12:17:04.749Z,17.20
2018-11-07T12:19:33.086Z,17.70
2018-11-07T12:22:01.608Z,17.40
2018-11-07T12:24:29.915Z,17.60
2018-11-07T12:26:58.750Z,17.50
2018-11-07T12:29:27.100Z,17.50
2018-11-07T12:31:55.506Z,17.20
2018-11-07T12:34:23.868Z,17.30
2018-11-07T12:36:52.217Z,17.70
2018-11-07T12:39:20.581Z,17.70
2018-11-07T12:41:48.896Z,17.40
2018-11-07T12:44:17.259Z,17.60
2018-11-07T12:46:45.602Z,17.60
2018-11-07T12:49:13.936Z,17.50
2018-11-07T12:51:42.277Z,17.50
2018-11-07T12:54:10.612Z,17.80
2018-11-07T12:56:38.920Z,17.50
2018-11-07T12:59:07.285Z,17.20
2018-11-07T13:01:35.663Z,17.20
2018-11-07T13:04:04.025Z,16.80
2018-11-07T13:06:32.400Z,16.80
2018-11-07T13:09:00.728Z,16.90
2018-11-07T13:11:29.718Z,16.80
2018-11-07T13:13:58.037Z,16.60
2018-11-07T13:16:26.411Z,16.40
2018-11-07T13:18:54.828Z,16.30
2018-11-07T13:21:23.160Z,16.50
2018-11-07T13:23:51.538Z,16.80
2018-11-07T13:26:19.919Z,16.70
2018-11-07T13:28:48.356Z,16.80
2018-11-07T13:31:16.685Z,16.70
2018-11-07T13:33:45.054Z,16.70
2018-11-07T13:36:13.400Z,16.70
2018-11-07T13:38:42.169Z,16.80
2018-11-07T13:41:10.239Z,16.70
2018-11-07T13:43:38.483Z,16.60
2018-11-07T13:46:06.945Z,16.40
2018-11-07T13:48:35.223Z,16.50
2018-11-07T13:51:03.589Z,16.40
2018-11-07T13:53:31.972Z,16.40
2018-11-07T13:56:00.291Z,16.40
2018-11-07T13:58:28.666Z,16.40
2018-11-07T14:00:56.986Z,16.50
2018-11-07T14:03:25.405Z,16.50
2018-11-07T14:05:53.742Z,16.40
2018-11-07T14:08:22.416Z,16.50
2018-11-07T14:10:50.757Z,16.50
2018-11-07T14:13:19.183Z,16.60
2018-11-07T14:15:47.633Z,16.50
2018-11-07T14:18:15.971Z,16.50
2018-11-07T14:20:44.348Z,16.50
2018-11-07T14:23:12.734Z,16.40
2018-11-07T14:25:41.055Z,16.20
2018-11-07T14:28:09.548Z,16.10
2018-11-07T14:30:37.982Z,16.00
2018-11-07T14:33:06.246Z,15.90
2018-11-07T14:35:34.613Z,15.80
2018-11-07T14:38:02.981Z,15.70
2018-11-07T14:40:31.380Z,15.60
2018-11-07T14:42:59.752Z,15.50
2018-11-07T14:45:28.127Z,15.40
2018-11-07T14:47:56.494Z,15.40
2018-11-07T14:50:24.899Z,15.30
2018-11-07T14:52:53.280Z,15.20
2018-11-07T14:55:21.656Z,15.20
2018-11-07T14:57:50.019Z,15.10
2018-11-07T15:00:18.375Z,15.10
2018-11-07T15:02:46.956Z,15.00
2018-11-07T15:05:16.254Z,14.90
2018-11-07T15:07:45.005Z,14.80
2018-11-07T15:10:14.281Z,14.70
2018-11-07T15:12:42.669Z,14.60
2018-11-07T15:15:13.501Z,14.50
2018-11-07T15:17:41.884Z,14.40
2018-11-07T15:20:11.549Z,14.30
2018-11-07T15:22:39.987Z,14.20
2018-11-07T15:25:09.397Z,14.00
2018-11-07T15:27:37.700Z,14.00
2018-11-07T15:30:07.888Z,13.80
2018-11-07T15:32:36.622Z,13.70
2018-11-07T15:35:05.268Z,13.60
2018-11-07T15:37:33.646Z,13.40
2018-11-07T15:40:02.081Z,13.40
2018-11-07T15:42:30.542Z,13.20
2018-11-07T15:44:58.873Z,13.10
2018-11-07T15:47:27.272Z,13.00
2018-11-07T15:52:02.555Z,13.00
2018-11-07T15:54:30.912Z,12.80
2018-11-07T15:56:59.241Z,12.70
2018-11-07T15:59:27.622Z,12.60
2018-11-07T16:01:55.963Z,12.60
2018-11-07T16:04:24.414Z,12.50
2018-11-07T16:06:52.800Z,12.40
2018-11-07T16:09:21.156Z,12.40
2018-11-07T16:11:49.514Z,12.30
2018-11-07T16:14:17.928Z,12.30
2018-11-07T16:16:46.324Z,12.20
2018-11-07T16:19:14.660Z,12.20
2018-11-07T16:21:43.095Z,12.20
2018-11-07T16:24:11.474Z,12.10
2018-11-07T16:26:39.807Z,12.00
2018-11-07T16:29:09.142Z,12.00
2018-11-07T16:31:37.538Z,11.90
2018-11-07T16:34:05.937Z,11.90
2018-11-07T16:36:34.336Z,11.90
2018-11-07T16:39:02.695Z,11.80
2018-11-07T16:41:31.314Z,11.70
2018-11-07T16:43:59.438Z,11.70
2018-11-07T16:46:27.857Z,11.70
2018-11-07T16:48:56.219Z,11.70
2018-11-07T16:51:24.581Z,11.70
2018-11-07T16:53:53.024Z,11.60
2018-11-07T16:56:21.393Z,11.60
2018-11-07T16:58:49.767Z,11.60
2018-11-07T17:01:18.117Z,11.60
2018-11-07T17:03:46.524Z,11.70
2018-11-07T17:06:14.901Z,11.60
2018-11-07T17:08:43.264Z,11.60
2018-11-07T17:11:11.704Z,11.50
2018-11-07T17:13:40.181Z,11.50
2018-11-07T17:16:08.616Z,11.50
2018-11-07T17:18:36.988Z,11.50
2018-11-07T17:21:05.350Z,11.60
2018-11-07T17:23:33.729Z,11.60
2018-11-07T17:26:02.126Z,11.60
2018-11-07T17:28:30.500Z,11.50
2018-11-07T17:30:58.885Z,11.50
2018-11-07T17:33:27.291Z,11.50
2018-11-07T17:35:55.648Z,11.50
2018-11-07T17:38:24.059Z,11.50
2018-11-07T17:40:52.444Z,11.50
2018-11-07T17:43:20.790Z,11.50
2018-11-07T17:45:49.221Z,11.40
2018-11-07T17:48:17.735Z,11.40
2018-11-07T17:50:45.946Z,11.50
2018-11-07T17:53:14.353Z,11.50
2018-11-07T17:55:42.725Z,11.50
2018-11-07T17:58:11.141Z,11.50
2018-11-07T18:00:39.728Z,11.50
2018-11-07T18:03:08.135Z,11.50
2018-11-07T18:05:36.826Z,11.40
2018-11-07T18:08:05.178Z,11.40
2018-11-07T18:10:33.781Z,11.50
2018-11-07T18:13:02.358Z,11.50
2018-11-07T18:15:30.714Z,11.40
2018-11-07T18:17:59.161Z,11.40
2018-11-07T18:20:27.571Z,11.40
2018-11-07T18:22:56.027Z,11.40
2018-11-07T18:25:24.470Z,11.40
2018-11-07T18:27:52.982Z,11.40
2018-11-07T18:30:21.407Z,11.40
2018-11-07T18:32:49.783Z,11.40
2018-11-07T18:35:19.257Z,11.40
2018-11-07T18:37:47.960Z,11.40
2018-11-07T18:40:17.793Z,11.40
2018-11-07T18:42:46.214Z,11.40
2018-11-07T18:45:14.900Z,11.40
2018-11-07T18:47:44.490Z,11.30
2018-11-07T18:50:14.255Z,11.30
2018-11-07T18:52:42.966Z,11.30
2018-11-07T18:55:12.638Z,11.30
2018-11-07T18:57:41.644Z,11.30
2018-11-07T19:00:11.895Z,11.30
2018-11-07T19:02:40.654Z,11.30
2018-11-07T19:05:09.515Z,11.30
2018-11-07T19:07:38.281Z,11.30
2018-11-07T19:10:11.951Z,11.30
2018-11-07T19:12:40.617Z,11.30
2018-11-07T19:15:10.810Z,11.30
2018-11-07T19:17:39.889Z,11.30
2018-11-07T19:20:09.188Z,11.30
2018-11-07T19:22:37.613Z,11.20
2018-11-07T19:25:08.177Z,11.20
2018-11-07T19:27:37.067Z,11.20
2018-11-07T19:30:07.568Z,11.20
2018-11-07T19:32:36.018Z,11.20
2018-11-07T19:35:05.256Z,11.20
2018-11-07T19:37:33.678Z,11.20
2018-11-07T19:40:02.119Z,11.20
2018-11-07T19:42:30.770Z,11.20
2018-11-07T19:44:59.316Z,11.20
2018-11-07T19:47:27.704Z,11.20
2018-11-07T19:49:56.066Z,11.20
2018-11-07T19:52:24.466Z,11.10
2018-11-07T19:54:52.949Z,11.10
2018-11-07T19:57:21.585Z,11.00
2018-11-07T19:59:50.222Z,11.00
2018-11-07T20:02:18.708Z,11.00
2018-11-07T20:04:47.136Z,10.90
2018-11-07T20:07:15.801Z,10.90
2018-11-07T20:09:44.182Z,10.90
2018-11-07T20:12:13.254Z,10.90
2018-11-07T20:14:41.936Z,10.90
2018-11-07T20:17:10.482Z,11.00
2018-11-07T20:19:38.892Z,11.00
2018-11-07T20:22:07.378Z,10.90
2018-11-07T20:24:35.856Z,10.90
2018-11-07T20:27:04.490Z,11.00
2018-11-07T20:29:32.912Z,10.90
2018-11-07T20:32:01.350Z,10.90
2018-11-07T20:34:29.986Z,10.90
2018-11-07T20:36:58.545Z,10.90
2018-11-07T20:39:26.938Z,10.90
2018-11-07T20:41:55.532Z,10.90
2018-11-07T20:44:23.810Z,10.90
2018-11-07T20:46:52.345Z,10.90
2018-11-07T20:49:21.550Z,10.90
2018-11-07T20:51:50.739Z,10.90
2018-11-07T20:54:19.942Z,10.90
2018-11-07T20:56:48.832Z,10.80
2018-11-07T20:59:17.221Z,10.70
2018-11-07T21:01:45.616Z,10.80
2018-11-07T21:04:13.977Z,10.80
2018-11-07T21:06:43.300Z,10.70
2018-11-07T21:09:13.196Z,10.70
2018-11-07T21:11:42.459Z,10.70
2018-11-07T21:14:11.793Z,10.70
2018-11-07T21:16:41.754Z,10.70
2018-11-07T21:19:10.697Z,10.70
2018-11-07T21:21:39.842Z,10.70
2018-11-07T21:24:09.002Z,10.70
2018-11-07T21:26:37.919Z,10.70
2018-11-07T21:29:06.979Z,10.70
2018-11-07T21:31:36.037Z,10.70
2018-11-07T21:34:05.309Z,10.70
2018-11-07T21:36:34.377Z,10.80
2018-11-07T21:39:03.096Z,10.80
2018-11-07T21:41:32.069Z,10.70
2018-11-07T21:44:00.759Z,10.70
2018-11-07T21:46:29.862Z,10.70
2018-11-07T21:48:58.951Z,10.70
2018-11-07T21:51:28.041Z,10.70
2018-11-07T21:53:56.433Z,10.70
2018-11-07T21:56:24.797Z,10.70
2018-11-07T21:58:53.169Z,10.70
2018-11-07T22:01:21.557Z,10.70
2018-11-07T22:03:49.961Z,10.70
2018-11-07T22:06:18.330Z,10.70
2018-11-07T22:08:46.707Z,10.70
2018-11-07T22:11:15.064Z,10.70
2018-11-07T22:13:43.422Z,10.70
2018-11-07T22:16:11.777Z,10.60
2018-11-07T22:18:40.127Z,10.60
2018-11-07T22:21:08.530Z,10.60
2018-11-07T22:23:36.900Z,10.60
2018-11-07T22:26:05.499Z,10.60
2018-11-07T22:28:33.868Z,10.60
2018-11-07T22:31:02.225Z,10.60
2018-11-07T22:33:30.557Z,10.60
2018-11-07T22:35:58.916Z,10.60
2018-11-07T22:38:27.249Z,10.60
2018-11-07T22:40:55.592Z,10.60
2018-11-07T22:43:23.983Z,10.60
2018-11-07T22:45:52.344Z,10.60
2018-11-07T22:48:20.680Z,10.60
2018-11-07T22:50:49.068Z,10.60
2018-11-07T22:53:17.407Z,10.60
2018-11-07T22:55:45.835Z,10.60
2018-11-07T22:58:14.186Z,10.60
2018-11-07T23:00:47.916Z,10.60
2018-11-07T23:03:16.252Z,10.50
2018-11-07T23:05:44.602Z,10.50
2018-11-07T23:08:12.977Z,10.50
2018-11-07T23:10:41.345Z,10.50
2018-11-07T23:13:09.684Z,10.50
2018-11-07T23:15:43.341Z,10.50
2018-11-07T23:18:11.785Z,10.40
2018-11-07T23:20:40.153Z,10.40
2018-11-07T23:23:08.601Z,10.40
2018-11-07T23:25:36.925Z,10.40
2018-11-07T23:28:05.388Z,10.40
2018-11-07T23:30:33.732Z,10.40
2018-11-07T23:33:02.100Z,10.40
2018-11-07T23:35:30.496Z,10.40
2018-11-07T23:37:58.844Z,10.40
2018-11-07T23:40:27.151Z,10.30
2018-11-07T23:42:55.493Z,10.30
2018-11-07T23:45:23.851Z,10.30
2018-11-07T23:47:52.261Z,10.30
2018-11-07T23:50:20.640Z,10.30
2018-11-07T23:52:50.217Z,10.30
2018-11-07T23:55:19.926Z,10.30
2018-11-07T23:57:48.837Z,10.30
